Time;durP1;ratioP1;P1;durP2;ratioP2;P2;SDS_P1;SDS_P2;PMS_P1;PMS_P2;Temp;Humidity;BMP_temperature;BMP_pressure;BME280_temperature;BME280_humidity;BME280_pressure;Samples;Min_cycle;Max_cycle;Signal;HPM_P1;HPM_P2
2023/12/16 00:02:33;;;;;;;44.00;32.30;;;;;;;4.78;100.00;102195.94;110612;1260;22415;-77
2023/12/16 00:05:12;;;;;;;38.70;31.80;;;;;;;4.82;100.00;102191.15;110677;1260;23615;-77
2023/12/16 00:08:12;;;;;;;42.90;31.40;;;;;;;4.84;100.00;102183.09;110600;1260;23736;-77
2023/12/16 00:10:52;;;;;;;38.00;29.60;;;;;;;4.83;100.00;102179.64;110713;1260;23718;-76
2023/12/16 00:14:10;;;;;;;39.60;31.40;;;;;;;4.81;100.00;102181.14;110655;1260;22067;-76
2023/12/16 00:16:54;;;;;;;37.00;30.40;;;;;;;4.80;100.00;102176.48;110350;1264;21984;-76
2023/12/16 00:19:55;;;;;;;40.10;29.40;;;;;;;4.82;100.00;102179.62;110667;1260;21986;-77
2023/12/16 00:22:52;;;;;;;37.00;28.70;;;;;;;4.85;100.00;102189.15;110619;1260;21980;-76
2023/12/16 00:25:33;;;;;;;39.00;29.00;;;;;;;4.88;100.00;102184.01;110438;1249;23029;-77
2023/12/16 00:28:10;;;;;;;40.30;31.20;;;;;;;4.90;100.00;102185.60;110436;1263;22058;-76
2023/12/16 00:31:13;;;;;;;44.20;30.90;;;;;;;4.89;100.00;102187.30;110425;1263;21975;-76
2023/12/16 00:33:47;;;;;;;38.80;30.70;;;;;;;4.88;100.00;102189.54;109839;1269;23690;-74
2023/12/16 00:36:27;;;;;;;49.50;33.90;;;;;;;4.85;100.00;102187.42;110009;1266;21977;-76
2023/12/16 00:39:00;;;;;;;45.00;32.30;;;;;;;4.86;100.00;102187.61;109660;1270;23616;-75
2023/12/16 00:41:32;;;;;;;45.60;30.40;;;;;;;4.89;100.00;102185.92;109666;1270;23647;-75
2023/12/16 00:44:14;;;;;;;43.50;31.40;;;;;;;4.90;100.00;102193.19;110010;1265;21964;-75
2023/12/16 00:46:57;;;;;;;41.10;30.80;;;;;;;4.92;100.00;102203.73;110351;1265;23007;-75
2023/12/16 00:49:53;;;;;;;39.00;28.00;;;;;;;4.94;100.00;102208.77;110062;1265;21974;-75
2023/12/16 00:52:41;;;;;;;37.30;27.90;;;;;;;4.95;100.00;102216.38;109771;1266;21976;-75
2023/12/16 00:55:34;;;;;;;40.90;28.50;;;;;;;4.94;100.00;102221.02;110161;1266;22932;-74
2023/12/16 00:58:16;;;;;;;40.10;30.20;;;;;;;4.94;100.00;102219.98;110308;1262;21971;-76
2023/12/16 01:00:50;;;;;;;39.60;30.40;;;;;;;4.95;100.00;102223.44;110519;1262;21964;-76
2023/12/16 01:03:23;;;;;;;44.80;32.30;;;;;;;4.97;100.00;102224.86;110535;1262;21967;-76
2023/12/16 01:06:00;;;;;;;42.60;30.20;;;;;;;4.98;100.00;102224.54;110525;1262;23710;-76
2023/12/16 01:08:42;;;;;;;41.30;29.60;;;;;;;4.94;100.00;102221.55;110501;1260;21964;-77
2023/12/16 01:11:19;;;;;;;43.60;29.40;;;;;;;4.94;100.00;102224.30;111000;1254;21985;-75
2023/12/16 01:14:03;;;;;;;42.00;31.20;;;;;;;4.95;100.00;102232.25;111076;1254;21963;-77
2023/12/16 01:16:44;;;;;;;43.00;30.60;;;;;;;4.97;100.00;102231.77;110548;1262;23070;-76
2023/12/16 01:19:20;;;;;;;41.30;30.40;;;;;;;5.01;100.00;102226.48;110421;1262;22004;-76
2023/12/16 01:21:52;;;;;;;42.80;31.70;;;;;;;5.02;100.00;102226.15;110444;1262;21972;-77
2023/12/16 01:24:36;;;;;;;46.30;32.90;;;;;;;5.03;100.00;102225.98;110342;1262;21980;-75
2023/12/16 01:27:09;;;;;;;47.60;33.10;;;;;;;5.04;100.00;102224.11;110204;1263;23035;-75
2023/12/16 01:29:43;;;;;;;47.20;34.50;;;;;;;5.05;100.00;102215.49;110256;1263;22736;-76
2023/12/16 01:32:15;;;;;;;52.60;34.40;;;;;;;5.06;100.00;102209.48;110347;1263;21973;-77
2023/12/16 01:35:02;;;;;;;56.80;33.80;;;;;;;5.05;100.00;102208.41;110715;1254;23718;-75
2023/12/16 01:37:40;;;;;;;47.60;31.40;;;;;;;5.06;100.00;102207.57;111035;1254;23020;-76
2023/12/16 01:40:13;;;;;;;47.40;32.30;;;;;;;5.07;100.00;102210.86;110983;1254;21959;-76
2023/12/16 01:42:46;;;;;;;46.40;32.40;;;;;;;5.06;100.00;102214.13;110970;1254;22165;-76
2023/12/16 01:45:24;;;;;;;48.50;32.00;;;;;;;5.07;100.00;102219.48;110986;1254;21963;-76
2023/12/16 01:48:10;;;;;;;45.40;31.50;;;;;;;5.09;100.00;102220.39;110973;1254;23806;-76
2023/12/16 01:50:41;;;;;;;43.10;30.70;;;;;;;5.12;100.00;102219.56;111078;1254;23740;-76
2023/12/16 01:53:25;;;;;;;42.30;30.10;;;;;;;5.14;100.00;102219.60;110849;1254;23696;-75
2023/12/16 01:55:59;;;;;;;41.00;29.10;;;;;;;5.16;100.00;102229.63;110666;1259;21972;-75
2023/12/16 01:58:40;;;;;;;42.60;31.10;;;;;;;5.17;100.00;102239.15;110812;1257;21991;-75
2023/12/16 02:01:13;;;;;;;41.80;29.60;;;;;;;5.21;100.00;102236.26;110436;1259;22061;-74
2023/12/16 02:03:55;;;;;;;39.70;30.20;;;;;;;5.23;100.00;102232.50;110061;1265;23034;-75
2023/12/16 02:06:43;;;;;;;44.70;30.70;;;;;;;5.23;100.00;102228.36;110213;1265;22034;-75
2023/12/16 02:09:19;;;;;;;43.50;28.90;;;;;;;5.25;100.00;102227.52;109175;1272;23057;-74
2023/12/16 02:11:52;;;;;;;39.90;30.00;;;;;;;5.29;100.00;102226.02;108851;1275;23096;-75
2023/12/16 02:14:30;;;;;;;39.40;29.30;;;;;;;5.32;100.00;102224.85;108670;1276;22036;-75
2023/12/16 02:17:11;;;;;;;42.80;29.10;;;;;;;5.34;100.00;102225.57;108759;1277;24502;-75
2023/12/16 02:19:55;;;;;;;42.40;30.70;;;;;;;5.35;100.00;102229.38;108741;1279;21993;-75
2023/12/16 02:22:55;;;;;;;39.30;28.50;;;;;;;5.34;100.00;102227.48;109101;1273;23025;-74
2023/12/16 02:25:48;;;;;;;44.30;31.20;;;;;;;5.34;100.00;102231.44;108735;1277;22267;-75
2023/12/16 02:28:30;;;;;;;38.10;30.40;;;;;;;5.37;100.00;102234.42;108929;1274;23824;-76
2023/12/16 02:31:14;;;;;;;43.20;30.40;;;;;;;5.39;100.00;102232.20;109199;1272;21979;-76
2023/12/16 02:33:50;;;;;;;42.90;30.70;;;;;;;5.43;100.00;102226.91;109652;1266;23855;-76
2023/12/16 02:36:43;;;;;;;44.60;31.60;;;;;;;5.42;100.00;102230.68;110356;1262;23728;-75
2023/12/16 02:39:29;;;;;;;43.70;31.40;;;;;;;5.42;100.00;102231.55;110177;1262;258910;-74
2023/12/16 02:42:08;;;;;;;43.60;31.30;;;;;;;5.43;100.00;102229.67;110430;1262;22251;-75
2023/12/16 02:44:50;;;;;;;40.60;30.30;;;;;;;5.45;100.00;102233.83;110960;1255;23618;-74
2023/12/16 02:47:25;;;;;;;44.70;31.00;;;;;;;5.49;100.00;102232.67;110946;1255;24367;-75
2023/12/16 02:50:07;;;;;;;43.80;31.40;;;;;;;5.51;100.00;102237.71;111123;1255;21990;-75
2023/12/16 02:52:55;;;;;;;45.50;30.60;;;;;;;5.50;100.00;102233.04;110952;1255;23032;-76
2023/12/16 02:55:33;;;;;;;40.30;31.70;;;;;;;5.50;100.00;102231.48;110996;1255;21992;-76
2023/12/16 02:58:14;;;;;;;43.50;30.50;;;;;;;5.49;100.00;102233.20;110722;1260;23707;-76
2023/12/16 03:00:54;;;;;;;44.20;31.30;;;;;;;5.48;100.00;102230.27;110697;1260;22530;-76
2023/12/16 03:03:37;;;;;;;40.10;31.50;;;;;;;5.49;100.00;102223.37;110707;1259;23072;-75
2023/12/16 03:06:20;;;;;;;43.10;32.20;;;;;;;5.52;100.00;102221.31;110583;1260;23587;-75
2023/12/16 03:09:15;;;;;;;43.40;31.40;;;;;;;5.53;100.00;102219.61;110401;1264;23025;-76
2023/12/16 03:11:51;;;;;;;47.60;31.00;;;;;;;5.55;100.00;102224.80;110265;1264;23607;-76
2023/12/16 03:14:34;;;;;;;45.10;30.40;;;;;;;5.55;100.00;102228.61;110346;1263;23696;-74
2023/12/16 03:17:16;;;;;;;41.40;31.60;;;;;;;5.55;100.00;102225.16;110358;1259;23723;-76
2023/12/16 03:19:55;;;;;;;43.30;31.50;;;;;;;5.57;100.00;102229.15;110746;1259;23590;-74
2023/12/16 03:22:34;;;;;;;41.90;32.00;;;;;;;5.59;100.00;102229.86;110605;1259;21978;-75
2023/12/16 03:25:11;;;;;;;41.90;30.30;;;;;;;5.62;100.00;102227.32;110745;1258;21958;-75
2023/12/16 03:27:51;;;;;;;44.70;31.50;;;;;;;5.64;100.00;102229.08;110739;1258;23403;-77
2023/12/16 03:30:29;;;;;;;42.90;30.60;;;;;;;5.66;100.00;102232.38;110749;1258;21970;-76
2023/12/16 03:33:08;;;;;;;41.10;30.30;;;;;;;5.69;100.00;102240.02;110718;1255;24437;-76
2023/12/16 03:35:42;;;;;;;39.80;33.00;;;;;;;5.68;100.00;102243.45;111022;1255;21958;-76
2023/12/16 03:38:42;;;;;;;35.30;28.90;;;;;;;5.67;100.00;102239.81;110963;1254;21935;-76
2023/12/16 03:41:34;;;;;;;40.20;29.60;;;;;;;5.67;100.00;102243.44;111058;1254;22312;-77
2023/12/16 03:44:17;;;;;;;47.10;33.10;;;;;;;5.69;100.00;102240.54;110594;1259;23172;-76
2023/12/16 03:47:09;;;;;;;40.90;31.10;;;;;;;5.69;100.00;102241.58;110394;1263;22315;-75
2023/12/16 03:49:58;;;;;;;41.30;30.50;;;;;;;5.71;100.00;102240.73;110417;1263;23746;-77
2023/12/16 03:52:35;;;;;;;42.80;30.30;;;;;;;5.74;100.00;102242.84;110274;1264;23621;-75
2023/12/16 03:55:23;;;;;;;;;;;;;;;;;;;;;
2023/12/16 03:57:58;;;;;;;44.40;31.50;;;;;;;5.77;100.00;102247.89;109316;1271;23856;-75
2023/12/16 04:00:32;;;;;;;38.70;28.80;;;;;;;5.79;100.00;102251.55;109445;1271;22428;-76
2023/12/16 04:03:08;;;;;;;39.40;30.00;;;;;;;5.82;100.00;102253.48;109546;1267;22000;-76
2023/12/16 04:05:50;;;;;;;;;;;;;;;;;;;;;
2023/12/16 04:08:37;;;;;;;38.00;28.90;;;;;;;5.83;100.00;102247.45;109792;1267;21975;-75
2023/12/16 04:11:17;;;;;;;40.80;29.20;;;;;;;5.81;100.00;102252.44;109201;1268;22047;-77
2023/12/16 04:14:17;;;;;;;;;;;;;;;;;;;;;
2023/12/16 04:17:19;;;;;;;45.50;30.50;;;;;;;5.77;100.00;102261.19;109298;1272;22468;-76
2023/12/16 04:20:23;;;;;;;44.90;30.70;;;;;;;5.78;100.00;102264.15;109316;1272;24445;-76
2023/12/16 04:23:02;;;;;;;39.40;29.50;;;;;;;5.80;100.00;102262.44;109274;1272;21988;-76
2023/12/16 04:25:55;;;;;;;;;;;;;;;;;;;;;
2023/12/16 04:28:59;;;;;;;45.70;31.30;;;;;;;5.79;100.00;102270.04;109491;1266;21980;-77
2023/12/16 04:31:53;;;;;;;45.10;31.90;;;;;;;5.81;100.00;102271.45;109966;1266;21973;-79
2023/12/16 04:35:00;;;;;;;43.00;30.40;;;;;;;5.82;100.00;102274.73;110231;1259;23690;-77
2023/12/16 04:37:58;;;;;;;35.80;29.70;;;;;;;5.82;100.00;102276.64;110748;1258;24978;-77
2023/12/16 04:41:20;;;;;;;46.90;29.60;;;;;;;5.82;100.00;102270.58;110800;1254;22310;-76
2023/12/16 04:44:22;;;;;;;46.50;30.80;;;;;;;5.83;100.00;102272.67;111073;1254;22004;-77
2023/12/16 04:47:32;;;;;;;;;;;;;;;;;;;;;
2023/12/16 04:51:27;;;;;;;45.10;29.60;;;;;;;5.83;100.00;102283.56;109713;1269;21979;-76
2023/12/16 04:54:28;;;;;;;40.30;28.30;;;;;;;5.82;100.00;102283.39;109214;1272;23042;-77
2023/12/16 04:57:32;;;;;;;42.20;29.00;;;;;;;5.84;100.00;102288.41;108867;1277;23728;-78
2023/12/16 05:00:40;;;;;;;42.60;30.40;;;;;;;5.87;100.00;102292.41;108718;1281;23689;-76
2023/12/16 05:04:05;;;;;;;;;;;;;;;;;;;;;
2023/12/16 05:07:26;;;;;;;56.50;31.00;;;;;;;5.86;100.00;102294.13;108794;1277;23022;-77
2023/12/16 05:10:28;;;;;;;44.50;31.20;;;;;;;5.87;100.00;102297.60;109685;1269;23491;-77
2023/12/16 05:13:47;;;;;;;40.50;29.60;;;;;;;5.86;100.00;102302.95;110056;1266;23080;-76
2023/12/16 05:16:33;;;;;;;51.20;35.20;;;;;;;5.87;100.00;102299.86;110484;1261;21978;-76
2023/12/16 05:19:48;;;;;;;;;;;;;;;;;;;;;
2023/12/16 05:23:04;;;;;;;50.10;31.50;;;;;;;5.92;100.00;102304.05;110457;1263;22747;-77
2023/12/16 05:26:09;;;;;;;49.20;29.40;;;;;;;5.91;100.00;102307.50;109942;1268;22022;-75
2023/12/16 05:29:01;;;;;;;45.60;29.80;;;;;;;5.93;100.00;102310.99;109930;1268;23047;-76
2023/12/16 05:32:11;;;;;;;;;;;;;;;;;;;;;
2023/12/16 05:35:19;;;;;;;50.70;30.90;;;;;;;5.93;100.00;102314.62;109897;1268;22049;-76
2023/12/16 05:38:19;;;;;;;44.80;30.70;;;;;;;5.95;100.00;102316.04;110360;1264;22178;-76
2023/12/16 05:41:22;;;;;;;43.00;29.60;;;;;;;5.90;100.00;102304.73;110548;1260;22122;-75
2023/12/16 05:44:21;;;;;;;43.00;29.50;;;;;;;5.96;100.00;102318.13;110227;1265;22724;-76
2023/12/16 05:47:37;;;;;;;43.50;30.20;;;;;;;5.97;100.00;102318.33;110116;1265;22737;-75
2023/12/16 05:50:31;;;;;;;42.30;29.60;;;;;;;5.99;100.00;102317.83;110401;1265;21986;-77
2023/12/16 05:53:56;;;;;;;42.50;29.50;;;;;;;6.01;100.00;102318.73;110154;1253;22030;-77
2023/12/16 05:57:20;;;;;;;46.60;29.80;;;;;;;5.99;100.00;102319.58;109829;1266;22866;-76
2023/12/16 06:00:20;;;;;;;43.70;29.80;;;;;;;5.99;100.00;102314.21;110026;1266;21994;-76
2023/12/16 06:03:41;;;;;;;52.70;32.10;;;;;;;6.01;100.00;102312.33;110567;1260;23011;-78
2023/12/16 06:06:47;;;;;;;65.40;39.80;;;;;;;6.02;100.00;102309.92;110719;1260;21972;-76
2023/12/16 06:09:49;;;;;;;54.60;33.80;;;;;;;6.04;100.00;102309.96;109828;1266;21973;-76
2023/12/16 06:12:40;;;;;;;52.70;33.70;;;;;;;6.04;100.00;102310.30;110002;1266;23675;-75
2023/12/16 06:15:30;;;;;;;64.10;40.20;;;;;;;6.02;100.00;102303.86;109582;1266;22035;-77
2023/12/16 06:18:33;;;;;;;64.00;41.80;;;;;;;6.05;100.00;102312.03;109832;1266;21988;-77
2023/12/16 06:21:26;;;;;;;52.80;35.80;;;;;;;6.07;100.00;102303.92;110074;1266;22997;-76
2023/12/16 06:24:15;;;;;;;;;;;;;;;;;;;;;
2023/12/16 06:27:16;;;;;;;;;;;;;;;;;;;;;
2023/12/16 06:30:41;;;;;;;;;;;;;;;;;;;;;
2023/12/16 06:34:08;;;;;;;54.10;34.00;;;;;;;6.10;100.00;102311.91;110016;1255;22023;-75
2023/12/16 06:37:17;;;;;;;42.10;29.60;;;;;;;6.06;100.00;102321.91;109766;1267;21977;-76
2023/12/16 06:40:44;;;;;;;47.80;31.50;;;;;;;6.06;100.00;102321.21;110183;1261;23022;-76
2023/12/16 06:43:38;;;;;;;42.50;31.60;;;;;;;6.07;100.00;102322.95;110601;1261;23702;-76
2023/12/16 06:46:31;;;;;;;46.50;33.00;;;;;;;6.08;100.00;102323.64;110442;1261;21969;-77
2023/12/16 06:49:31;;;;;;;;;;;;;;;;;;;;;
2023/12/16 06:52:43;;;;;;;44.20;28.70;;;;;;;6.12;100.00;102323.18;111026;1253;21963;-75
2023/12/16 06:55:36;;;;;;;44.10;31.00;;;;;;;6.12;100.00;102324.39;110907;1255;23803;-75
2023/12/16 06:58:43;;;;;;;42.20;29.70;;;;;;;6.12;100.00;102325.59;110925;1255;22132;-76
2023/12/16 07:01:30;;;;;;;52.50;35.50;;;;;;;6.10;100.00;102328.50;110894;1255;21967;-73
2023/12/16 07:04:36;;;;;;;48.90;36.10;;;;;;;6.11;100.00;102330.44;110950;1255;22708;-76
2023/12/16 07:07:22;;;;;;;54.80;38.10;;;;;;;6.13;100.00;102337.88;110460;1262;22008;-76
2023/12/16 07:10:18;;;;;;;51.90;34.20;;;;;;;6.13;100.00;102339.27;110502;1262;21974;-77
2023/12/16 07:13:34;;;;;;;;;;;;;;;;;;;;;
2023/12/16 07:16:33;;;;;;;;;;;;;;;;;;;;;
2023/12/16 07:19:36;;;;;;;44.20;33.00;;;;;;;6.16;100.00;102357.27;108998;1274;23123;-76
2023/12/16 07:22:16;;;;;;;49.50;32.40;;;;;;;6.20;100.00;102358.73;108959;1274;22987;-76
2023/12/16 07:24:51;;;;;;;41.50;30.10;;;;;;;6.25;100.00;102366.03;108996;1274;23791;-75
2023/12/16 07:27:30;;;;;;;39.30;28.10;;;;;;;6.27;100.00;102366.07;109259;1272;23606;-74
2023/12/16 07:30:12;;;;;;;39.50;29.10;;;;;;;6.29;100.00;102366.79;109287;1272;22994;-76
2023/12/16 07:32:50;;;;;;;39.50;29.50;;;;;;;6.29;100.00;102369.73;108972;1275;22112;-76
2023/12/16 07:35:26;;;;;;;37.40;27.30;;;;;;;6.30;100.00;102368.35;108742;1276;21997;-76
2023/12/16 07:37:59;;;;;;;41.40;28.60;;;;;;;6.32;100.00;102364.39;108979;1272;23670;-75
2023/12/16 07:40:39;;;;;;;38.70;27.60;;;;;;;6.32;100.00;102364.58;108993;1275;22529;-75
2023/12/16 07:43:35;;;;;;;36.90;26.80;;;;;;;6.31;100.00;102363.00;108934;1274;23046;-80
2023/12/16 07:46:16;;;;;;;42.70;28.90;;;;;;;6.31;100.00;102365.60;109241;1274;24135;-73
2023/12/16 07:49:11;;;;;;;38.10;27.20;;;;;;;6.34;100.00;102364.42;109185;1274;21987;-76
2023/12/16 07:52:23;;;;;;;;;;;;;;;;;;;;;
2023/12/16 07:55:04;;;;;;;48.30;31.80;;;;;;;6.38;100.00;102359.29;109398;1271;23020;-75
2023/12/16 07:58:12;;;;;;;32.60;24.00;;;;;;;6.40;100.00;102350.84;109366;1268;22458;-74
2023/12/16 08:00:46;;;;;;;36.20;24.80;;;;;;;6.42;100.00;102348.10;109165;1268;23603;-74
2023/12/16 08:04:12;;;;;;;29.50;22.20;;;;;;;6.44;100.00;102349.15;109464;1270;21978;-81
2023/12/16 08:06:59;;;;;;;33.00;22.90;;;;;;;6.43;100.00;102348.80;109081;1277;21988;-76
2023/12/16 08:09:35;;;;;;;40.70;25.30;;;;;;;6.46;100.00;102348.65;109112;1269;22648;-76
2023/12/16 08:12:16;;;;;;;28.20;22.20;;;;;;;6.50;100.00;102349.73;109013;1271;23722;-76
2023/12/16 08:15:35;;;;;;;29.10;20.70;;;;;;;6.51;100.00;102353.89;109443;1271;21984;-76
2023/12/16 08:18:11;;;;;;;35.40;24.40;;;;;;;6.51;100.00;102356.66;109641;1268;23119;-75
2023/12/16 08:20:55;;;;;;;33.90;22.70;;;;;;;6.52;100.00;102353.56;110085;1262;23043;-74
2023/12/16 08:23:32;;;;;;;51.70;41.30;;;;;;;6.53;100.00;102352.70;110741;1254;22001;-75
2023/12/16 08:26:12;;;;;;;27.20;20.80;;;;;;;6.56;100.00;102355.86;111046;1255;21962;-76
2023/12/16 08:29:09;;;;;;;33.20;26.10;;;;;;;6.57;100.00;102355.16;111023;1255;21970;-76
2023/12/16 08:32:25;;;;;;;36.60;27.50;;;;;;;6.57;100.00;102360.35;110433;1262;21979;-76
2023/12/16 08:35:56;;;;;;;28.50;22.80;;;;;;;6.57;100.00;102367.28;110523;1262;21974;-76
2023/12/16 08:38:51;;;;;;;26.80;21.60;;;;;;;6.59;100.00;102368.69;110495;1261;23121;-74
2023/12/16 08:42:15;;;;;;;30.30;22.90;;;;;;;6.63;100.00;102368.56;110019;1266;22359;-74
2023/12/16 08:45:53;;;;;;;;;;;;;;;6.66;100.00;102374.13;110063;1266;24329;-76
2023/12/16 08:48:43;;;;;;;31.30;22.40;;;;;;;6.49;100.00;102365.65;109920;1266;23710;-77
2023/12/16 08:52:07;;;;;;;29.20;23.30;;;;;;;6.70;100.00;102383.34;109931;1267;21979;-75
2023/12/16 08:55:48;;;;;;;28.70;21.40;;;;;;;6.81;100.00;102377.91;109703;1266;22017;-76
2023/12/16 08:59:24;;;;;;;;;;;;;;;;;;;;;
2023/12/16 09:02:57;;;;;;;44.00;32.20;;;;;;;6.93;100.00;102380.45;110580;1261;21975;-76
2023/12/16 09:06:30;;;;;;;;;;;;;;;;;;;;;
2023/12/16 09:09:45;;;;;;;;;;;;;;;;;;;;;
2023/12/16 09:12:24;;;;;;;38.30;27.40;;;;;;;7.07;100.00;102385.27;110558;1254;23056;-75
2023/12/16 09:15:00;;;;;;;48.00;38.30;;;;;;;7.11;100.00;102387.89;109907;1266;21975;-76
2023/12/16 09:17:32;;;;;;;47.40;37.50;;;;;;;7.14;100.00;102390.00;110230;1266;22111;-75
2023/12/16 09:20:17;;;;;;;50.90;45.20;;;;;;;7.18;100.00;102391.25;110163;1261;21957;-76
2023/12/16 09:23:27;;;;;;;;;;;;;;;;;;;;;
2023/12/16 09:35:18;;;;;;;;;;;;;;;;;;;;;
2023/12/16 09:38:44;;;;;;;35.80;28.30;;;;;;;7.19;100.00;102383.29;108457;1283;22909;-76
2023/12/16 09:41:58;;;;;;;45.30;35.50;;;;;;;7.20;100.00;102380.36;108459;1283;23727;-79
2023/12/16 09:45:08;;;;;;;46.20;33.80;;;;;;;7.26;100.00;102370.20;108723;1283;22019;-80
2023/12/16 09:48:03;;;;;;;47.90;39.60;;;;;;;7.33;100.00;102365.39;108680;1279;23763;-77
2023/12/16 09:50:48;;;;;;;45.20;33.80;;;;;;;7.36;100.00;102357.98;108701;1281;22014;-77
2023/12/16 09:53:27;;;;;;;43.00;34.90;;;;;;;7.39;100.00;102353.15;108614;1281;21991;-76
2023/12/16 09:56:31;;;;;;;34.70;29.90;;;;;;;7.38;100.00;102347.77;108609;1281;22468;-78
2023/12/16 09:59:09;;;;;;;36.30;28.40;;;;;;;7.38;100.00;102344.13;108763;1279;21989;-77
2023/12/16 10:02:15;;;;;;;34.80;28.50;;;;;;;7.41;100.00;102345.88;108646;1279;22190;-77
2023/12/16 10:04:51;;;;;;;37.10;29.80;;;;;;;7.44;100.00;102346.77;108660;1279;21991;-79
2023/12/16 10:07:41;;;;;;;59.70;52.40;;;;;;;7.45;100.00;102349.91;108595;1278;22064;-77
2023/12/16 10:10:14;;;;;;;34.10;28.10;;;;;;;7.48;100.00;102355.12;108626;1279;23741;-78
2023/12/16 10:12:49;;;;;;;46.50;38.20;;;;;;;7.49;100.00;102360.66;109587;1271;21982;-76
2023/12/16 10:15:51;;;;;;;38.80;31.50;;;;;;;7.46;100.00;102362.38;110008;1264;22893;-77
2023/12/16 10:18:25;;;;;;;36.10;30.10;;;;;;;7.43;100.00;102362.52;109682;1270;22375;-78
2023/12/16 10:21:01;;;;;;;38.90;30.90;;;;;;;7.41;100.00;102362.52;109379;1267;23789;-77
2023/12/16 10:23:50;;;;;;;33.90;28.90;;;;;;;7.35;100.00;102362.98;109272;1272;23624;-77
2023/12/16 10:26:30;;;;;;;39.00;31.20;;;;;;;7.37;100.00;102360.74;109726;1267;21986;-78
2023/12/16 10:29:05;;;;;;;42.30;31.60;;;;;;;7.38;100.00;102352.96;109930;1267;22050;-79
2023/12/16 10:31:40;;;;;;;42.50;34.70;;;;;;;7.43;100.00;102356.64;109661;1267;22011;-78
2023/12/16 10:34:14;;;;;;;47.80;37.80;;;;;;;7.47;100.00;102362.56;109756;1267;22245;-77
2023/12/16 10:36:44;;;;;;;46.10;38.40;;;;;;;7.45;100.00;102363.92;109715;1267;22964;-77
2023/12/16 10:39:22;;;;;;;47.30;39.20;;;;;;;7.41;100.00;102362.86;109742;1267;21987;-77
2023/12/16 10:41:51;;;;;;;44.50;35.50;;;;;;;7.40;100.00;102360.25;110087;1261;21983;-77
2023/12/16 10:44:23;;;;;;;39.50;33.50;;;;;;;7.40;100.00;102355.41;110493;1261;24396;-77
2023/12/16 10:46:59;;;;;;;38.00;31.10;;;;;;;7.43;100.00;102350.58;110438;1261;22634;-79
2023/12/16 10:49:40;;;;;;;42.80;33.10;;;;;;;7.46;100.00;102348.52;110414;1261;22730;-79
2023/12/16 10:52:19;;;;;;;38.00;33.80;;;;;;;7.38;100.00;102331.13;109892;1268;23047;-79
2023/12/16 10:55:00;;;;;;;50.70;38.40;;;;;;;7.43;100.00;102340.70;110189;1261;22346;-77
2023/12/16 10:58:06;;;;;;;44.10;34.50;;;;;;;7.41;100.00;102339.14;110588;1261;23611;-78
2023/12/16 11:00:54;;;;;;;39.40;35.10;;;;;;;7.40;100.00;102335.99;110577;1261;21974;-80
2023/12/16 11:03:52;;;;;;;39.90;33.50;;;;;;;7.41;100.00;102327.52;110583;1261;22100;-77
2023/12/16 11:07:13;;;;;;;42.70;33.00;;;;;;;7.38;100.00;102319.19;110769;1261;21974;-78
2023/12/16 11:09:48;;;;;;;36.50;32.50;;;;;;;7.39;100.00;102312.79;110739;1254;21966;-79
2023/12/16 11:12:23;;;;;;;50.80;37.00;;;;;;;7.44;100.00;102310.57;110652;1259;21966;-79
2023/12/16 11:15:16;;;;;;;60.50;53.90;;;;;;;7.49;100.00;102306.78;110445;1263;23048;-78
2023/12/16 11:18:15;;;;;;;64.30;57.30;;;;;;;7.53;100.00;102310.27;110131;1263;21983;-77
2023/12/16 11:20:56;;;;;;;55.60;47.50;;;;;;;7.54;100.00;102312.54;109654;1268;21980;-80
2023/12/16 11:23:46;;;;;;;59.10;43.60;;;;;;;7.56;100.00;102309.61;109779;1268;21978;-78
2023/12/16 11:26:54;;;;;;;48.30;39.40;;;;;;;7.57;100.00;102307.00;109605;1268;22000;-77
2023/12/16 11:29:34;;;;;;;39.40;31.50;;;;;;;7.58;100.00;102305.61;109511;1268;22776;-78
2023/12/16 11:32:45;;;;;;;50.40;38.10;;;;;;;7.57;100.00;102301.45;110144;1260;21978;-78
2023/12/16 11:35:52;;;;;;;46.70;40.20;;;;;;;7.58;100.00;102312.21;110493;1260;23188;-77
2023/12/16 11:38:43;;;;;;;49.40;37.80;;;;;;;7.60;100.00;102310.30;110680;1253;21964;-78
2023/12/16 11:41:35;;;;;;;47.40;38.60;;;;;;;7.63;100.00;102307.04;110533;1261;23636;-76
2023/12/16 11:44:12;;;;;;;40.60;31.50;;;;;;;7.63;100.00;102304.27;110690;1257;23015;-78
2023/12/16 11:46:52;;;;;;;38.20;29.50;;;;;;;7.63;100.00;102300.98;110217;1264;22740;-77
2023/12/16 11:49:49;;;;;;;;;;;;;;;;;;;;;
2023/12/16 11:52:51;;;;;;;41.00;32.40;;;;;;;7.66;100.00;102299.43;110061;1268;21983;-78
2023/12/16 11:56:26;;;;;;;37.70;30.00;;;;;;;7.68;100.00;102297.02;109731;1268;21980;-78
2023/12/16 11:59:12;;;;;;;33.80;26.40;;;;;;;7.72;100.00;102297.73;108711;1277;23054;-81
2023/12/16 12:01:44;;;;;;;31.50;24.00;;;;;;;7.76;100.00;102296.20;108882;1277;21976;-79
2023/12/16 12:04:24;;;;;;;29.30;23.50;;;;;;;7.83;100.00;102296.40;108791;1278;22004;-78
2023/12/16 12:07:34;;;;;;;;;;;;;;;;;;;;;
2023/12/16 12:10:37;;;;;;;32.60;21.50;;;;;;;7.83;100.00;102287.21;108599;1281;21989;-80
2023/12/16 12:13:25;;;;;;;31.20;22.10;;;;;;;7.84;100.00;102286.53;108851;1280;24369;-80
2023/12/16 12:16:28;;;;;;;28.40;22.60;;;;;;;7.87;100.00;102286.36;108592;1275;22475;-78
2023/12/16 12:19:16;;;;;;;28.30;22.40;;;;;;;7.90;100.00;102282.21;109081;1275;21987;-79
2023/12/16 12:22:07;;;;;;;32.70;25.30;;;;;;;7.95;100.00;102277.73;109373;1271;21989;-79
2023/12/16 12:25:04;;;;;;;41.00;25.80;;;;;;;7.97;100.00;102278.60;109703;1271;21980;-80
2023/12/16 12:28:07;;;;;;;33.90;27.40;;;;;;;7.97;100.00;102275.65;109558;1271;23645;-79
2023/12/16 12:31:19;;;;;;;;;;;;;;;;;;;;;
2023/12/16 12:34:09;;;;;;;36.90;28.40;;;;;;;7.99;100.00;102267.50;108953;1277;23737;-79
2023/12/16 12:37:11;;;;;;;38.60;29.10;;;;;;;8.00;100.00;102263.19;109405;1269;22022;-79
2023/12/16 12:40:46;;;;;;;;;;;;;;;;;;;;;
2023/12/16 12:43:59;;;;;;;40.30;28.80;;;;;;;7.92;100.00;102259.86;109786;1268;23606;-80
2023/12/16 12:46:53;;;;;;;42.50;29.00;;;;;;;7.92;100.00;102259.50;109717;1268;22012;-79
2023/12/16 12:49:51;;;;;;;37.20;28.40;;;;;;;7.95;100.00;102260.57;109720;1268;23704;-80
2023/12/16 12:53:03;;;;;;;36.20;26.90;;;;;;;7.98;100.00;102259.88;110269;1262;21978;-79
2023/12/16 12:56:26;;;;;;;42.50;25.90;;;;;;;7.89;100.00;102242.52;110474;1261;23042;-79
2023/12/16 12:59:28;;;;;;;39.70;26.20;;;;;;;8.00;100.00;102254.34;110298;1267;23649;-82
2023/12/16 13:02:40;;;;;;;37.20;25.80;;;;;;;7.98;100.00;102252.43;110683;1262;21967;-79
2023/12/16 13:05:25;;;;;;;32.20;24.60;;;;;;;8.00;100.00;102249.33;110843;1262;21976;-80
2023/12/16 13:08:02;;;;;;;32.60;24.20;;;;;;;8.03;100.00;102247.93;110554;1268;21999;-79
2023/12/16 13:11:19;;;;;;;40.70;24.60;;;;;;;8.07;100.00;102242.04;109800;1273;23635;-79
2023/12/16 13:14:09;;;;;;;38.10;24.00;;;;;;;8.08;100.00;102235.83;109275;1273;21995;-82
2023/12/16 13:17:10;;;;;;;30.60;23.70;;;;;;;8.08;100.00;102235.63;109680;1273;22309;-79
2023/12/16 13:20:17;;;;;;;40.10;31.50;;;;;;;8.07;100.00;102237.73;109312;1273;23679;-80
2023/12/16 13:22:57;;;;;;;32.30;27.10;;;;;;;8.05;100.00;102239.96;109487;1272;23810;-80
2023/12/16 13:25:49;;;;;;;37.50;26.80;;;;;;;8.04;100.00;102236.48;109801;1265;21935;-80
2023/12/16 13:32:38;;;;;;;39.80;30.20;;;;;;;7.99;100.00;102225.05;110068;1270;22002;-80
2023/12/16 13:36:27;;;;;;;43.00;32.50;;;;;;;7.93;100.00;102225.87;109763;1270;22006;-78
2023/12/16 13:39:41;;;;;;;33.20;25.80;;;;;;;7.83;100.00;102222.55;109926;1270;23675;-79
2023/12/16 13:42:56;;;;;;;41.80;31.20;;;;;;;7.82;100.00;102222.55;110331;1264;22011;-81
2023/12/16 13:45:56;;;;;;;80.20;67.10;;;;;;;7.81;100.00;102223.95;110716;1264;21971;-80
2023/12/16 13:48:49;;;;;;;41.70;32.30;;;;;;;7.85;100.00;102222.74;110826;1264;24504;-78